createdAt,value
2022-08-14T00:02:00.440Z,4.32
2022-08-14T00:04:34.273Z,4.28
2022-08-14T00:07:07.036Z,4.05
2022-08-14T00:09:55.496Z,4.25
2022-08-14T00:12:33.053Z,4.00
2022-08-14T00:15:04.553Z,4.07
2022-08-14T00:17:38.166Z,4.30
2022-08-14T00:20:23.788Z,4.07
2022-08-14T00:22:57.431Z,4.38
2022-08-14T00:25:41.426Z,4.00
2022-08-14T00:28:15.407Z,4.30
2022-08-14T00:30:47.019Z,4.25
2022-08-14T00:33:16.555Z,4.00
2022-08-14T00:36:35.364Z,3.83
2022-08-14T00:38:34.769Z,4.57
2022-08-14T00:41:11.124Z,4.15
2022-08-14T00:43:43.268Z,4.20
2022-08-14T00:46:32.193Z,4.00
2022-08-14T00:49:00.933Z,5.13
2022-08-14T00:51:36.754Z,4.20
2022-08-14T00:54:11.088Z,4.35
2022-08-14T00:56:55.706Z,4.38
2022-08-14T00:59:25.830Z,3.95
2022-08-14T01:01:58.184Z,4.38
2022-08-14T01:04:51.351Z,4.32
2022-08-14T01:07:20.601Z,4.43
2022-08-14T01:09:54.126Z,4.80
2022-08-14T01:12:26.790Z,4.50
2022-08-14T01:14:58.772Z,4.70
2022-08-14T01:17:49.733Z,4.55
2022-08-14T01:20:40.037Z,3.67
2022-08-14T01:23:18.724Z,4.75
2022-08-14T01:25:48.937Z,4.35
2022-08-14T01:28:47.267Z,4.68
2022-08-14T01:31:19.201Z,4.70
2022-08-14T01:33:59.824Z,4.75
2022-08-14T01:36:39.406Z,4.43
2022-08-14T01:39:17.834Z,4.32
2022-08-14T01:42:00.781Z,4.50
2022-08-14T01:44:34.421Z,4.53
2022-08-14T01:47:16.499Z,4.53
2022-08-14T01:49:59.652Z,4.20
2022-08-14T01:52:58.922Z,4.47
2022-08-14T01:55:29.181Z,4.97
2022-08-14T01:58:18.447Z,4.80
2022-08-14T02:00:43.964Z,4.80
2022-08-14T02:03:16.165Z,4.53
2022-08-14T02:05:44.065Z,4.65
2022-08-14T02:08:11.450Z,4.22
2022-08-14T02:10:46.627Z,5.32
2022-08-14T02:13:17.461Z,4.72
2022-08-14T02:15:45.392Z,4.88
2022-08-14T02:18:16.381Z,4.38
2022-08-14T02:20:48.683Z,5.00
2022-08-14T02:23:16.568Z,5.38
2022-08-14T02:25:57.058Z,5.10
2022-08-14T02:28:57.391Z,5.28
2022-08-14T02:31:18.558Z,5.03
2022-08-14T02:33:56.372Z,5.60
2022-08-14T02:37:04.221Z,4.97
2022-08-14T02:39:13.297Z,4.90
2022-08-14T02:41:52.487Z,4.53
2022-08-14T02:44:29.431Z,5.40
2022-08-14T02:47:01.495Z,5.60
2022-08-14T02:49:33.077Z,5.57
2022-08-14T02:52:01.861Z,5.00
2022-08-14T02:54:43.399Z,5.88
2022-08-14T02:57:13.871Z,5.40
2022-08-14T02:59:44.559Z,4.75
2022-08-14T03:02:24.601Z,5.25
2022-08-14T03:05:01.055Z,5.22
2022-08-14T03:07:29.523Z,5.70
2022-08-14T03:10:28.015Z,6.13
2022-08-14T03:12:44.698Z,5.43
2022-08-14T03:15:14.435Z,5.80
2022-08-14T03:17:57.939Z,5.80
2022-08-14T03:20:28.804Z,5.30
2022-08-14T03:23:03.011Z,6.07
2022-08-14T03:25:33.607Z,5.47
2022-08-14T03:28:07.117Z,6.32
2022-08-14T03:30:39.962Z,5.10
2022-08-14T03:33:11.411Z,5.85
2022-08-14T03:36:00.319Z,4.63
2022-08-14T03:39:13.384Z,5.85
2022-08-14T03:41:23.885Z,5.53
2022-08-14T03:45:15.663Z,6.15
2022-08-14T03:46:54.789Z,6.10
2022-08-14T03:49:29.531Z,5.78
2022-08-14T03:52:01.347Z,5.97
2022-08-14T03:54:29.520Z,5.53
2022-08-14T03:57:02.699Z,6.13
2022-08-14T03:59:32.235Z,5.70
2022-08-14T04:02:01.770Z,5.78
2022-08-14T04:04:31.296Z,5.75
2022-08-14T04:07:00.124Z,5.75
2022-08-14T04:09:29.248Z,6.63
2022-08-14T04:11:58.029Z,6.25
2022-08-14T04:14:25.666Z,5.97
2022-08-14T04:16:53.018Z,6.07
2022-08-14T04:19:23.871Z,6.70
2022-08-14T04:22:03.591Z,5.97
2022-08-14T04:24:38.425Z,6.55
2022-08-14T04:27:09.376Z,5.93
2022-08-14T04:29:42.648Z,6.15
2022-08-14T04:33:01.331Z,6.53
2022-08-14T04:35:01.540Z,7.40
2022-08-14T04:37:53.967Z,7.35
2022-08-14T04:40:40.388Z,7.20
2022-08-14T04:43:26.897Z,8.00
2022-08-14T04:46:54.679Z,8.50
2022-08-14T04:49:00.133Z,8.05
2022-08-14T04:51:28.222Z,7.13
2022-08-14T04:53:57.717Z,7.28
2022-08-14T04:56:31.476Z,6.93
2022-08-14T04:59:10.694Z,7.65
2022-08-14T05:01:48.772Z,7.75
2022-08-14T05:04:20.909Z,7.40
2022-08-14T05:06:55.277Z,7.43
2022-08-14T05:09:29.234Z,6.47
2022-08-14T05:13:10.727Z,6.57
2022-08-14T05:14:55.164Z,7.05
2022-08-14T05:17:28.882Z,6.30
2022-08-14T05:21:04.523Z,7.07
2022-08-14T05:22:59.754Z,6.82
2022-08-14T05:25:30.955Z,6.85
2022-08-14T05:28:20.481Z,6.88
2022-08-14T05:30:50.204Z,7.75
2022-08-14T05:33:19.671Z,7.38
2022-08-14T05:35:48.677Z,7.57
2022-08-14T05:38:30.602Z,6.68
2022-08-14T05:40:59.709Z,7.80
2022-08-14T05:43:40.754Z,7.05
2022-08-14T05:46:15.115Z,6.88
2022-08-14T05:48:43.522Z,7.13
2022-08-14T05:51:11.104Z,8.32
2022-08-14T05:53:42.414Z,8.35
2022-08-14T05:56:10.312Z,8.10
2022-08-14T05:58:41.254Z,7.70
2022-08-14T06:01:10.305Z,6.72
2022-08-14T06:03:40.277Z,6.78
2022-08-14T06:06:08.145Z,6.47
2022-08-14T06:08:41.794Z,7.22
2022-08-14T06:11:10.488Z,6.90
2022-08-14T06:13:45.760Z,7.00
2022-08-14T06:16:18.242Z,7.13
2022-08-14T06:18:48.642Z,7.03
2022-08-14T06:21:21.671Z,5.78
2022-08-14T06:23:50.147Z,8.00
2022-08-14T06:26:20.506Z,7.18
2022-08-14T06:28:52.404Z,7.30
2022-08-14T06:31:22.721Z,6.68
2022-08-14T06:35:03.149Z,7.00
2022-08-14T06:36:39.642Z,6.78
2022-08-14T06:39:09.990Z,7.30
2022-08-14T06:41:57.839Z,6.63
2022-08-14T06:44:32.366Z,6.70
2022-08-14T06:47:02.515Z,6.93
2022-08-14T06:49:30.401Z,6.47
2022-08-14T06:51:57.960Z,7.35
2022-08-14T06:54:31.500Z,7.32
2022-08-14T06:56:59.346Z,7.22
2022-08-14T06:59:27.042Z,6.55
2022-08-14T07:02:17.650Z,6.35
2022-08-14T07:05:06.214Z,6.72
2022-08-14T07:07:39.267Z,6.45
2022-08-14T07:10:08.133Z,6.17
2022-08-14T07:13:01.815Z,6.63
2022-08-14T07:15:33.989Z,6.60
2022-08-14T07:18:03.673Z,6.88
2022-08-14T07:20:33.361Z,7.00
2022-08-14T07:23:09.222Z,7.05
2022-08-14T07:25:48.158Z,6.30
2022-08-14T07:28:24.659Z,7.13
2022-08-14T07:30:57.609Z,6.63
2022-08-14T07:33:43.607Z,5.80
2022-08-14T07:36:30.194Z,5.97
2022-08-14T07:39:00.545Z,6.03
2022-08-14T07:41:31.266Z,6.63
2022-08-14T07:44:28.932Z,6.15
2022-08-14T07:46:49.095Z,6.28
2022-08-14T07:49:17.677Z,6.78
2022-08-14T07:51:49.529Z,6.25
2022-08-14T07:54:23.721Z,6.65
2022-08-14T07:56:59.751Z,7.07
2022-08-14T07:59:41.258Z,6.60
2022-08-14T08:02:18.628Z,7.10
2022-08-14T08:04:54.072Z,6.75
2022-08-14T08:07:24.920Z,6.20
2022-08-14T08:09:59.641Z,6.43
2022-08-14T08:12:30.915Z,6.65
2022-08-14T08:15:05.642Z,6.93
2022-08-14T08:17:38.804Z,6.20
2022-08-14T08:20:16.846Z,6.75
2022-08-14T08:22:55.598Z,6.25
2022-08-14T08:25:24.868Z,6.50
2022-08-14T08:27:59.696Z,6.95
2022-08-14T08:30:29.874Z,6.80
2022-08-14T08:33:01.078Z,7.00
2022-08-14T08:39:18.488Z,6.68
2022-08-14T08:41:09.735Z,7.05
2022-08-14T08:43:46.351Z,7.15
2022-08-14T08:46:23.294Z,6.90
2022-08-14T08:51:31.278Z,7.72
2022-08-14T08:54:04.422Z,6.95
2022-08-14T08:56:44.233Z,7.28
2022-08-14T08:59:31.059Z,6.38
2022-08-14T09:02:10.400Z,7.32
2022-08-14T09:04:45.328Z,7.22
2022-08-14T09:07:27.105Z,6.43
2022-08-14T09:09:58.937Z,6.85
2022-08-14T09:12:32.120Z,7.18
2022-08-14T09:15:11.377Z,6.00
2022-08-14T09:17:44.131Z,6.60
2022-08-14T09:20:14.120Z,6.43
2022-08-14T09:22:55.073Z,6.10
2022-08-14T09:25:59.784Z,6.68
2022-08-14T09:28:11.754Z,6.70
2022-08-14T09:30:47.795Z,5.90
2022-08-14T09:33:55.990Z,6.30
2022-08-14T09:36:43.759Z,5.70
2022-08-14T09:39:33.529Z,6.10
2022-08-14T09:42:34.194Z,5.88
2022-08-14T09:45:14.158Z,5.70
2022-08-14T09:47:51.788Z,6.45
2022-08-14T09:50:44.814Z,6.18
2022-08-14T09:53:18.484Z,5.60
2022-08-14T09:55:58.510Z,5.18
2022-08-14T09:58:41.101Z,5.85
2022-08-14T10:01:14.061Z,6.53
2022-08-14T10:03:53.658Z,6.65
2022-08-14T10:06:28.310Z,5.68
2022-08-14T10:09:06.538Z,5.10
2022-08-14T10:11:43.489Z,5.27
2022-08-14T10:14:34.944Z,6.13
2022-08-14T10:17:05.385Z,5.70
2022-08-14T10:19:35.609Z,5.05
2022-08-14T10:23:14.316Z,5.30
2022-08-14T10:24:59.800Z,5.28
2022-08-14T10:27:28.933Z,4.63
2022-08-14T10:30:01.933Z,4.47
2022-08-14T10:32:40.301Z,5.13
2022-08-14T10:35:17.395Z,4.85
2022-08-14T10:37:50.490Z,5.25
2022-08-14T10:40:44.148Z,5.00
2022-08-14T10:43:31.782Z,4.50
2022-08-14T10:46:21.627Z,3.60
2022-08-14T10:49:05.343Z,4.88
2022-08-14T10:51:36.402Z,4.47
2022-08-14T10:54:17.067Z,4.32
2022-08-14T10:57:10.206Z,3.92
2022-08-14T10:59:50.574Z,4.50
2022-08-14T11:02:35.883Z,4.22
2022-08-14T11:05:13.379Z,3.88
2022-08-14T11:07:56.563Z,4.40
2022-08-14T11:11:03.310Z,4.00
2022-08-14T11:13:31.586Z,3.50
2022-08-14T11:16:01.176Z,3.70
2022-08-14T11:18:36.290Z,3.72
2022-08-14T11:21:09.699Z,3.97
2022-08-14T11:23:43.955Z,4.00
2022-08-14T11:26:14.044Z,4.07
2022-08-14T11:28:49.599Z,3.97
2022-08-14T11:31:23.572Z,3.80
2022-08-14T11:33:58.178Z,3.97
2022-08-14T11:36:35.409Z,4.10
2022-08-14T11:39:33.532Z,3.85
2022-08-14T11:42:55.354Z,4.07
2022-08-14T11:45:00.072Z,3.97
2022-08-14T11:47:35.620Z,3.72
2022-08-14T11:50:33.473Z,4.00
2022-08-14T11:53:06.872Z,3.90
2022-08-14T11:55:39.288Z,3.50
2022-08-14T11:58:11.754Z,3.30
2022-08-14T12:00:53.720Z,3.75
2022-08-14T12:03:37.595Z,4.05
2022-08-14T12:06:28.140Z,3.75
2022-08-14T12:09:03.207Z,3.38
2022-08-14T12:11:43.265Z,3.25
2022-08-14T12:14:29.368Z,3.80
2022-08-14T12:17:05.070Z,3.80
2022-08-14T12:19:51.089Z,3.70
2022-08-14T12:22:42.161Z,3.78
2022-08-14T12:25:13.888Z,3.67
2022-08-14T12:27:52.598Z,3.30
2022-08-14T12:30:43.988Z,3.60
2022-08-14T12:33:33.020Z,3.90
2022-08-14T12:36:09.966Z,3.60
2022-08-14T12:38:43.821Z,3.88
2022-08-14T12:41:21.715Z,3.83
2022-08-14T12:43:59.873Z,3.63
2022-08-14T12:46:33.725Z,3.65
2022-08-14T12:49:13.407Z,3.72
2022-08-14T12:51:55.253Z,3.58
2022-08-14T12:54:28.596Z,4.22
2022-08-14T12:57:05.310Z,3.70
2022-08-14T12:59:37.191Z,3.45
2022-08-14T13:02:25.939Z,3.92
2022-08-14T13:04:56.553Z,3.92
2022-08-14T13:07:32.496Z,3.63
2022-08-14T13:10:12.780Z,4.50
2022-08-14T13:13:12.482Z,3.90
2022-08-14T13:15:40.348Z,4.25
2022-08-14T13:18:10.454Z,3.67
2022-08-14T13:20:39.052Z,3.83
2022-08-14T13:23:18.139Z,3.55
2022-08-14T13:25:56.003Z,3.50
2022-08-14T13:28:34.146Z,3.65
2022-08-14T13:31:11.167Z,3.53
2022-08-14T13:33:40.358Z,3.03
2022-08-14T13:36:10.057Z,3.58
2022-08-14T13:38:40.095Z,3.40
2022-08-14T13:41:08.776Z,3.22
2022-08-14T13:43:59.238Z,3.33
2022-08-14T13:46:27.937Z,3.40
2022-08-14T13:48:56.339Z,3.33
2022-08-14T13:51:35.510Z,3.10
2022-08-14T13:54:11.501Z,3.03
2022-08-14T13:56:40.465Z,3.40
2022-08-14T13:59:08.628Z,2.97
2022-08-14T14:01:43.688Z,3.10
2022-08-14T14:04:18.982Z,3.03
2022-08-14T14:06:51.107Z,2.97
2022-08-14T14:09:32.471Z,3.08
2022-08-14T14:12:37.744Z,3.40
2022-08-14T14:15:05.259Z,3.72
2022-08-14T14:17:35.260Z,3.60
2022-08-14T14:20:15.274Z,3.47
2022-08-14T14:23:02.346Z,3.95
2022-08-14T14:25:38.639Z,3.55
2022-08-14T14:28:16.906Z,3.47
2022-08-14T14:30:54.885Z,3.90
2022-08-14T14:33:46.668Z,4.30
2022-08-14T14:36:24.220Z,4.00
2022-08-14T14:38:54.174Z,4.30
2022-08-14T14:41:24.761Z,4.00
2022-08-14T14:43:54.182Z,3.75
2022-08-14T14:46:36.002Z,3.90
2022-08-14T14:49:08.058Z,4.30
2022-08-14T14:51:41.068Z,4.30
2022-08-14T14:54:13.235Z,4.18
2022-08-14T14:56:50.878Z,4.18
2022-08-14T14:59:20.212Z,4.00
2022-08-14T15:01:53.923Z,3.65
2022-08-14T15:04:22.337Z,3.90
2022-08-14T15:06:50.107Z,4.22
2022-08-14T15:09:20.975Z,4.00
2022-08-14T15:11:51.311Z,3.42
2022-08-14T15:14:56.605Z,3.45
2022-08-14T15:17:08.597Z,3.67
2022-08-14T15:19:38.286Z,3.70
2022-08-14T15:22:10.368Z,3.70
2022-08-14T15:24:38.804Z,3.47
2022-08-14T15:27:09.227Z,3.70
2022-08-14T15:29:43.309Z,3.78
2022-08-14T15:32:10.886Z,3.53
2022-08-14T15:34:50.852Z,3.50
2022-08-14T15:37:22.995Z,3.75
2022-08-14T15:39:52.648Z,3.50
2022-08-14T15:42:23.556Z,3.75
2022-08-14T15:44:58.512Z,3.63
2022-08-14T15:47:31.216Z,3.20
2022-08-14T15:50:08.631Z,3.38
2022-08-14T15:52:37.648Z,3.42
2022-08-14T15:55:13.015Z,3.25
2022-08-14T15:58:02.185Z,3.42
2022-08-14T16:00:55.339Z,3.13
2022-08-14T16:03:28.006Z,3.90
2022-08-14T16:06:11.130Z,3.92
2022-08-14T16:08:45.215Z,3.78
2022-08-14T16:11:14.560Z,3.53
2022-08-14T16:13:47.729Z,4.60
2022-08-14T16:16:47.270Z,3.92
2022-08-14T16:19:18.056Z,3.75
2022-08-14T16:22:02.256Z,3.72
2022-08-14T16:25:00.298Z,3.50
2022-08-14T16:27:38.762Z,7.00
2022-08-14T16:30:25.226Z,5.30
2022-08-14T16:32:57.253Z,3.90
2022-08-14T16:35:42.922Z,3.88
2022-08-14T16:38:47.763Z,3.60
2022-08-14T16:41:22.287Z,4.13
2022-08-14T16:44:13.871Z,3.45
2022-08-14T16:46:57.352Z,3.60
2022-08-14T16:50:03.381Z,3.72
2022-08-14T16:52:26.412Z,4.22
2022-08-14T16:55:09.639Z,3.58
2022-08-14T16:57:50.433Z,3.75
2022-08-14T17:00:28.839Z,3.95
2022-08-14T17:03:15.290Z,3.65
2022-08-14T17:05:46.612Z,3.63
2022-08-14T17:08:41.379Z,4.00
2022-08-14T17:11:09.997Z,3.70
2022-08-14T17:13:58.298Z,4.15
2022-08-14T17:16:37.243Z,4.40
2022-08-14T17:19:13.946Z,4.00
2022-08-14T17:21:47.578Z,4.03
2022-08-14T17:24:56.646Z,3.42
2022-08-14T17:27:07.284Z,3.83
2022-08-14T17:29:44.673Z,3.80
2022-08-14T17:32:30.100Z,4.20
2022-08-14T17:35:16.613Z,3.63
2022-08-14T17:37:55.510Z,3.63
2022-08-14T17:40:29.204Z,4.38
2022-08-14T17:43:01.693Z,4.13
2022-08-14T17:45:42.683Z,4.32
2022-08-14T17:49:15.868Z,3.97
2022-08-14T17:51:23.722Z,4.47
2022-08-14T17:54:02.763Z,4.55
2022-08-14T17:56:38.710Z,4.60
2022-08-14T17:59:07.134Z,4.00
2022-08-14T18:01:46.413Z,4.68
2022-08-14T18:04:28.316Z,4.63
2022-08-14T18:07:16.508Z,4.80
2022-08-14T18:09:56.682Z,4.93
2022-08-14T18:12:36.553Z,4.72
2022-08-14T18:15:16.646Z,4.72
2022-08-14T18:17:53.277Z,4.78
2022-08-14T18:21:39.576Z,4.43
2022-08-14T18:23:13.759Z,4.88
2022-08-14T18:25:54.470Z,4.75
2022-08-14T18:28:48.085Z,4.30
2022-08-14T18:31:22.776Z,5.10
2022-08-14T18:34:06.101Z,4.45
2022-08-14T18:36:56.680Z,4.38
2022-08-14T18:40:01.676Z,4.97
2022-08-14T18:42:24.408Z,4.85
2022-08-14T18:47:56.648Z,4.85
2022-08-14T18:50:27.122Z,4.93
2022-08-14T18:53:11.005Z,5.47
2022-08-14T18:55:53.145Z,5.18
2022-08-14T18:58:57.170Z,5.90
2022-08-14T19:01:29.882Z,4.70
2022-08-14T19:03:59.819Z,5.20
2022-08-14T19:06:39.835Z,5.18
2022-08-14T19:09:28.350Z,5.45
2022-08-14T19:11:55.755Z,5.20
2022-08-14T19:14:47.594Z,5.00
2022-08-14T19:18:10.965Z,4.78
2022-08-14T19:21:13.568Z,5.20
2022-08-14T19:23:44.358Z,5.20
2022-08-14T19:26:35.323Z,5.30
2022-08-14T19:29:38.046Z,5.57
2022-08-14T19:32:40.749Z,5.30
2022-08-14T19:35:49.964Z,4.90
2022-08-14T19:38:51.753Z,5.65
2022-08-14T19:41:29.518Z,5.45
2022-08-14T19:44:19.179Z,6.03
2022-08-14T19:47:02.653Z,5.70
2022-08-14T19:50:09.100Z,5.45
2022-08-14T19:52:24.318Z,5.30
2022-08-14T19:54:52.953Z,5.30
2022-08-14T19:57:23.833Z,5.15
2022-08-14T20:00:04.687Z,5.50
2022-08-14T20:02:47.818Z,5.72
2022-08-14T20:05:16.163Z,5.65
2022-08-14T20:07:58.887Z,5.32
2022-08-14T20:11:03.051Z,5.28
2022-08-14T20:13:32.172Z,5.80
2022-08-14T20:16:12.542Z,5.35
2022-08-14T20:18:51.764Z,5.32
2022-08-14T20:21:21.478Z,5.10
2022-08-14T20:23:49.601Z,5.18
2022-08-14T20:26:30.608Z,5.80
2022-08-14T20:28:58.657Z,6.00
2022-08-14T20:31:37.208Z,5.20
2022-08-14T20:34:24.706Z,5.65
2022-08-14T20:37:17.410Z,5.72
2022-08-14T20:39:53.687Z,5.88
2022-08-14T20:42:50.622Z,5.75
2022-08-14T20:45:24.224Z,5.10
2022-08-14T20:47:56.494Z,5.75
2022-08-14T20:50:28.582Z,6.85
2022-08-14T20:53:06.100Z,5.25
2022-08-14T20:55:41.615Z,6.07
2022-08-14T20:58:47.066Z,5.32
2022-08-14T21:01:36.071Z,5.80
2022-08-14T21:04:19.897Z,5.53
2022-08-14T21:07:22.826Z,5.50
2022-08-14T21:10:35.638Z,5.80
2022-08-14T21:13:25.943Z,5.25
2022-08-14T21:15:57.977Z,5.70
2022-08-14T21:18:32.509Z,5.70
2022-08-14T21:21:07.590Z,5.32
2022-08-14T21:23:54.581Z,5.38
2022-08-14T21:26:50.459Z,5.00
2022-08-14T21:29:14.313Z,5.00
2022-08-14T21:31:43.320Z,5.35
2022-08-14T21:34:27.169Z,4.65
2022-08-14T21:37:09.085Z,5.65
2022-08-14T21:39:38.241Z,4.95
2022-08-14T21:42:06.431Z,4.72
2022-08-14T21:44:36.214Z,5.00
2022-08-14T21:47:12.603Z,5.00
2022-08-14T21:49:43.132Z,5.38
2022-08-14T21:52:49.128Z,5.23
2022-08-14T21:55:10.164Z,5.10
2022-08-14T22:00:36.624Z,4.93
2022-08-14T22:03:09.855Z,5.13
2022-08-14T22:05:41.967Z,4.95
2022-08-14T22:08:14.076Z,5.32
2022-08-14T22:10:46.782Z,5.25
2022-08-14T22:13:17.981Z,4.75
2022-08-14T22:15:49.989Z,5.75
2022-08-14T22:18:21.012Z,4.45
2022-08-14T22:20:54.066Z,4.95
2022-08-14T22:23:25.064Z,4.70
2022-08-14T22:25:55.073Z,5.20
2022-08-14T22:28:32.977Z,5.32
2022-08-14T22:31:10.075Z,5.15
2022-08-14T22:33:40.141Z,5.15
2022-08-14T22:36:33.874Z,5.57
2022-08-14T22:39:03.876Z,5.50
2022-08-14T22:41:42.691Z,5.80
2022-08-14T22:44:14.532Z,5.38
2022-08-14T22:46:43.298Z,5.70
2022-08-14T22:49:16.492Z,5.70
2022-08-14T22:51:58.993Z,6.15
2022-08-14T22:54:53.016Z,5.68
2022-08-14T22:57:15.527Z,5.75
2022-08-14T22:59:43.390Z,5.35
2022-08-14T23:02:12.942Z,6.05
2022-08-14T23:04:54.385Z,6.28
2022-08-14T23:07:24.949Z,5.50
2022-08-14T23:09:56.351Z,5.60
2022-08-14T23:12:31.774Z,5.85
2022-08-14T23:15:02.312Z,5.07
2022-08-14T23:17:39.607Z,5.60
2022-08-14T23:20:19.765Z,5.03
2022-08-14T23:22:51.574Z,5.20
2022-08-14T23:25:57.440Z,5.45
2022-08-14T23:28:34.590Z,5.25
2022-08-14T23:31:01.729Z,5.25
2022-08-14T23:33:29.175Z,5.35
2022-08-14T23:35:59.039Z,5.45
2022-08-14T23:38:30.560Z,5.85
2022-08-14T23:41:01.019Z,5.90
2022-08-14T23:43:31.686Z,5.93
2022-08-14T23:45:59.316Z,5.80
2022-08-14T23:48:28.438Z,5.97
2022-08-14T23:50:56.683Z,6.03
2022-08-14T23:53:48.612Z,6.20
2022-08-14T23:56:32.090Z,5.47
2022-08-14T23:59:01.389Z,5.43
